createdAt,value
2022-12-15T00:00:54.395Z,100312.25
2022-12-15T00:06:14.771Z,100314.06
2022-12-15T00:11:35.745Z,100317.56
2022-12-15T00:16:56.279Z,100312.13
2022-12-15T00:22:17.132Z,100291.00
2022-12-15T00:27:38.355Z,100279.41
2022-12-15T00:32:59.355Z,100285.69
2022-12-15T00:38:27.895Z,100289.06
2022-12-15T00:43:32.578Z,100279.28
2022-12-15T00:48:34.841Z,100279.16
2022-12-15T00:53:55.568Z,100271.31
2022-12-15T00:59:16.259Z,100273.13
2022-12-15T01:04:36.956Z,100265.16
2022-12-15T01:09:57.757Z,100259.00
2022-12-15T01:15:18.390Z,100249.34
2022-12-15T01:20:20.408Z,100249.22
2022-12-15T01:25:24.537Z,100239.31
2022-12-15T01:30:27.318Z,100251.59
2022-12-15T01:35:29.591Z,100224.47
2022-12-15T01:40:46.869Z,100212.19
2022-12-15T01:45:56.683Z,100208.56
2022-12-15T01:51:20.351Z,100202.69
2022-12-15T01:56:25.262Z,100213.84
2022-12-15T02:01:27.564Z,100218.34
2022-12-15T02:06:30.534Z,100227.97
2022-12-15T02:11:45.163Z,100209.53
2022-12-15T02:16:53.012Z,100209.38
2022-12-15T02:22:23.044Z,100219.16
2022-12-15T02:27:49.191Z,100222.53
2022-12-15T02:33:03.201Z,100226.72
2022-12-15T02:38:05.251Z,100211.91
2022-12-15T02:43:10.061Z,100220.84
2022-12-15T02:48:30.285Z,100226.03
2022-12-15T02:54:09.593Z,100200.16
2022-12-15T02:59:21.914Z,100188.56
2022-12-15T03:04:26.040Z,100193.16
2022-12-15T03:09:28.336Z,100162.31
2022-12-15T03:14:30.252Z,100140.91
2022-12-15T03:19:32.216Z,100144.38
2022-12-15T03:24:34.345Z,100143.41
2022-12-15T03:29:36.360Z,100138.25
2022-12-15T03:34:38.547Z,100133.09
2022-12-15T03:39:40.745Z,100123.16
2022-12-15T03:44:42.740Z,100116.31
2022-12-15T03:49:44.846Z,100103.16
2022-12-15T03:54:46.832Z,100107.38
2022-12-15T03:59:48.986Z,100127.47
2022-12-15T04:04:51.095Z,100123.16
2022-12-15T04:09:53.316Z,100129.28
2022-12-15T04:14:55.353Z,100114.50
2022-12-15T04:20:09.595Z,100117.16
2022-12-15T04:25:35.813Z,100103.88
2022-12-15T04:30:58.339Z,100094.78
2022-12-15T04:36:19.230Z,100079.69
2022-12-15T04:41:42.315Z,100082.47
2022-12-15T04:47:02.757Z,100082.47
2022-12-15T04:52:23.614Z,100092.13
2022-12-15T04:57:44.221Z,100073.41
2022-12-15T05:03:04.668Z,100073.41
2022-12-15T05:08:25.492Z,100088.63
2022-12-15T05:13:46.335Z,100075.50
2022-12-15T05:19:07.239Z,100080.53
2022-12-15T05:24:27.604Z,100078.69
2022-12-15T05:29:48.353Z,100077.88
2022-12-15T05:34:50.357Z,100056.06
2022-12-15T05:39:52.699Z,100067.25
2022-12-15T05:44:54.773Z,100065.56
2022-12-15T05:49:56.812Z,100050.59
2022-12-15T05:54:58.937Z,100040.81
2022-12-15T06:00:01.085Z,100029.94
2022-12-15T06:05:03.196Z,100028.94
2022-12-15T06:10:05.964Z,100011.47
2022-12-15T06:15:08.539Z,100014.25
2022-12-15T06:20:11.230Z,100003.25
2022-12-15T06:25:13.478Z,100017.75
2022-12-15T06:30:16.545Z,100005.31
2022-12-15T06:35:18.652Z,99995.41
2022-12-15T06:40:20.785Z,99979.31
2022-12-15T06:45:22.876Z,99963.53
2022-12-15T06:50:24.980Z,99946.91
2022-12-15T06:55:27.008Z,99949.69
2022-12-15T07:00:29.261Z,99966.31
2022-12-15T07:05:31.401Z,99964.66
2022-12-15T07:10:33.698Z,99971.50
2022-12-15T07:15:35.928Z,99961.72
2022-12-15T07:20:38.418Z,99988.94
2022-12-15T07:25:40.712Z,99980.31
2022-12-15T07:30:42.844Z,99981.41
2022-12-15T07:35:53.396Z,99998.19
2022-12-15T07:40:55.832Z,100021.13
2022-12-15T07:45:57.913Z,99996.66
2022-12-15T07:51:10.914Z,100007.00
2022-12-15T07:56:15.613Z,100011.19
2022-12-15T08:01:18.126Z,99996.91
2022-12-15T08:06:20.570Z,100006.72
2022-12-15T08:11:24.988Z,100007.69
2022-12-15T08:16:27.746Z,100020.97
2022-12-15T08:21:32.556Z,100055.50
2022-12-15T08:26:35.428Z,100024.63
2022-12-15T08:31:37.826Z,100002.53
2022-12-15T08:36:40.100Z,100015.50
2022-12-15T08:41:42.573Z,99998.91
2022-12-15T08:46:44.939Z,100013.84
2022-12-15T08:51:47.052Z,100019.16
2022-12-15T08:56:52.312Z,100020.16
2022-12-15T09:01:54.520Z,100026.00
2022-12-15T09:06:56.656Z,100016.34
2022-12-15T09:11:58.770Z,100029.63
2022-12-15T09:17:01.039Z,100010.19
2022-12-15T09:22:03.949Z,100020.97
2022-12-15T09:27:06.261Z,100018.31
2022-12-15T09:32:13.853Z,100026.81
2022-12-15T09:37:16.476Z,100041.81
2022-12-15T09:42:29.948Z,100043.59
2022-12-15T09:47:37.041Z,100029.63
2022-12-15T09:52:56.953Z,100024.47
2022-12-15T09:58:14.075Z,100040.41
2022-12-15T10:03:32.772Z,100033.28
2022-12-15T10:08:42.311Z,100033.28
2022-12-15T10:13:55.957Z,100023.34
2022-12-15T10:19:26.045Z,100044.47
2022-12-15T10:25:07.893Z,100043.50
2022-12-15T10:30:12.349Z,100032.16
2022-12-15T10:35:18.674Z,100038.44
2022-12-15T10:40:50.484Z,100028.78
2022-12-15T10:46:14.413Z,100025.00
2022-12-15T10:51:23.989Z,100021.53
2022-12-15T11:01:51.417Z,100004.75
2022-12-15T11:06:56.387Z,99999.44
2022-12-15T11:12:30.510Z,100013.97
2022-12-15T11:17:42.337Z,99992.75
2022-12-15T11:22:53.399Z,99997.38
2022-12-15T11:28:07.063Z,100009.81
2022-12-15T11:33:10.803Z,100017.78
2022-12-15T11:38:21.772Z,100010.66
2022-12-15T11:43:31.972Z,99999.19
2022-12-15T11:49:15.135Z,99980.75
2022-12-15T11:54:44.264Z,99974.31
2022-12-15T12:00:15.485Z,99975.97
2022-12-15T12:05:42.343Z,99983.09
2022-12-15T12:11:25.547Z,99997.38
2022-12-15T12:16:46.335Z,99988.56
2022-12-15T12:22:00.840Z,99983.09
2022-12-15T12:27:11.577Z,99969.97
2022-12-15T12:32:45.162Z,99973.59
2022-12-15T12:38:01.199Z,99957.38
2022-12-15T12:43:11.883Z,99963.38
2022-12-15T12:48:32.389Z,99974.13
2022-12-15T12:53:35.313Z,99970.66
2022-12-15T12:58:38.893Z,99968.81
2022-12-15T13:03:42.376Z,99960.03
2022-12-15T13:08:53.034Z,99956.53
2022-12-15T13:13:55.265Z,99961.69
2022-12-15T13:19:03.813Z,99968.69
2022-12-15T13:24:06.112Z,99966.16
2022-12-15T13:29:09.776Z,99960.84
2022-12-15T13:34:16.250Z,99964.34
2022-12-15T13:39:18.282Z,99965.19
2022-12-15T13:44:40.982Z,99969.66
2022-12-15T13:49:51.942Z,99968.56
2022-12-15T13:55:00.667Z,99967.72
2022-12-15T14:00:07.509Z,99980.16
2022-12-15T14:05:23.356Z,99987.97
2022-12-15T14:10:27.953Z,99988.66
2022-12-15T14:15:32.717Z,99993.13
2022-12-15T14:20:40.616Z,99996.94
2022-12-15T14:25:53.424Z,100009.38
2022-12-15T14:30:58.563Z,100011.06
2022-12-15T14:36:02.135Z,100009.22
2022-12-15T14:41:06.430Z,100008.41
2022-12-15T14:46:22.540Z,100006.28
2022-12-15T14:51:26.787Z,100012.44
2022-12-15T14:56:32.825Z,100016.06
2022-12-15T15:01:58.271Z,100017.22
2022-12-15T15:03:04.592Z,100011.72
2022-12-15T15:07:07.086Z,100028.66
2022-12-15T15:12:16.543Z,100022.34
2022-12-15T15:17:36.099Z,100024.03
2022-12-15T15:22:43.702Z,100014.38
2022-12-15T15:27:45.762Z,100028.66
2022-12-15T15:32:57.919Z,100027.81
2022-12-15T15:38:05.556Z,100027.00
2022-12-15T15:43:12.528Z,100035.09
2022-12-15T15:48:24.666Z,100054.41
2022-12-15T15:53:31.001Z,100072.00
2022-12-15T15:58:35.142Z,100067.66
2022-12-15T16:03:37.562Z,100074.66
2022-12-15T16:08:40.437Z,100073.00
2022-12-15T16:13:42.503Z,100065.69
2022-12-15T16:18:44.889Z,100067.38
2022-12-15T16:23:49.145Z,100062.06
2022-12-15T16:28:51.348Z,100034.56
2022-12-15T16:33:53.492Z,100045.44
2022-12-15T16:38:55.566Z,100064.03
2022-12-15T16:43:58.802Z,100057.06
2022-12-15T16:49:00.922Z,100058.72
2022-12-15T16:54:03.550Z,100064.84
2022-12-15T17:04:28.053Z,100083.44
2022-12-15T17:09:30.080Z,100100.38
2022-12-15T17:14:32.911Z,100096.91
2022-12-15T17:19:34.943Z,100109.19
2022-12-15T17:24:37.062Z,100120.81
2022-12-15T17:29:46.052Z,100115.31
2022-12-15T17:34:48.230Z,100108.19
2022-12-15T17:39:51.648Z,100109.19
2022-12-15T17:44:54.246Z,100117.16
2022-12-15T17:49:56.437Z,100126.94
2022-12-15T17:54:58.639Z,100139.41
2022-12-15T18:00:02.178Z,100148.03
2022-12-15T18:05:07.948Z,100150.69
2022-12-15T18:10:32.941Z,100163.31
2022-12-15T18:15:35.113Z,100161.50
2022-12-15T18:20:37.190Z,100165.97
2022-12-15T18:25:40.262Z,100168.63
2022-12-15T18:30:42.569Z,100179.38
2022-12-15T18:35:47.108Z,100184.69
2022-12-15T18:40:52.098Z,100188.06
2022-12-15T18:45:54.383Z,100192.34
2022-12-15T18:50:59.027Z,100194.88
2022-12-15T18:56:03.039Z,100204.84
2022-12-15T19:01:06.461Z,100206.78
2022-12-15T19:06:34.965Z,100218.38
2022-12-15T19:11:37.242Z,100231.53
2022-12-15T19:16:57.796Z,100232.50
2022-12-15T19:22:00.522Z,100246.50
2022-12-15T19:27:02.577Z,100242.84
2022-12-15T19:32:04.871Z,100241.19
2022-12-15T19:37:14.072Z,100244.81
2022-12-15T19:42:20.139Z,100259.91
2022-12-15T19:47:22.163Z,100258.09
2022-12-15T19:52:24.143Z,100268.44
2022-12-15T19:57:26.143Z,100271.25
2022-12-15T20:02:28.299Z,100277.66
2022-12-15T20:07:31.020Z,100279.34
2022-12-15T20:12:33.292Z,100281.16
2022-12-15T20:17:35.616Z,100283.09
2022-12-15T20:22:37.731Z,100282.78
2022-12-15T20:27:39.868Z,100297.22
2022-12-15T20:32:41.928Z,100291.06
2022-12-15T20:37:45.408Z,100293.72
2022-12-15T20:42:47.565Z,100290.94
2022-12-15T20:47:51.833Z,100308.56
2022-12-15T20:52:55.019Z,100312.19
2022-12-15T20:57:57.285Z,100315.81
2022-12-15T21:03:00.287Z,100325.34
2022-12-15T21:08:02.595Z,100326.19
2022-12-15T21:13:15.655Z,100326.31
2022-12-15T21:18:57.632Z,100321.13
2022-12-15T21:23:42.848Z,100325.59
2022-12-15T21:28:45.206Z,100321.25
2022-12-15T21:33:47.451Z,100303.50
2022-12-15T21:38:52.280Z,100295.53
2022-12-15T21:43:55.002Z,100318.59
2022-12-15T21:49:17.657Z,100329.09
2022-12-15T21:54:37.611Z,100320.28
2022-12-15T21:59:39.986Z,100304.22
2022-12-15T22:04:41.952Z,100301.00
2022-12-15T22:09:44.634Z,100313.28
2022-12-15T22:14:47.208Z,100323.06
2022-12-15T22:19:49.445Z,100324.91
2022-12-15T22:24:51.463Z,100316.78
2022-12-15T22:29:53.637Z,100318.47
2022-12-15T22:34:55.756Z,100324.63
2022-12-15T22:39:57.931Z,100329.22
2022-12-15T22:45:00.084Z,100332.03
2022-12-15T22:50:02.701Z,100328.56
2022-12-15T22:55:05.047Z,100332.88
2022-12-15T23:00:09.780Z,100337.34
2022-12-15T23:05:15.117Z,100346.00
2022-12-15T23:10:37.807Z,100340.69
2022-12-15T23:15:58.673Z,100335.38
2022-12-15T23:21:01.899Z,100309.63
2022-12-15T23:26:05.211Z,100324.06
2022-12-15T23:31:08.490Z,100319.75
2022-12-15T23:36:12.254Z,100320.59
2022-12-15T23:41:18.269Z,100315.41
2022-12-15T23:46:20.330Z,100327.72
2022-12-15T23:51:22.478Z,100330.38
2022-12-15T23:56:26.031Z,100313.44
